Time;durP1;ratioP1;P1;durP2;ratioP2;P2;SDS_P1;SDS_P2;PMS_P1;PMS_P2;Temp;Humidity;BMP_temperature;BMP_pressure;BME280_temperature;BME280_humidity;BME280_pressure;Samples;Min_cycle;Max_cycle;Signal;HPM_P1;HPM_P2
2022/01/14 00:01:00;;;;;;;23.88;6.82;;;;;;;5.30;100.00;103125.13;5059141;28;20036;-76
2022/01/14 00:03:26;;;;;;;25.15;5.70;;;;;;;5.41;100.00;103133.41;5024680;28;20052;-74
2022/01/14 00:05:51;;;;;;;21.85;6.20;;;;;;;5.37;100.00;103124.00;5026701;28;20078;-76
2022/01/14 00:08:19;;;;;;;33.47;6.78;;;;;;;5.33;100.00;103107.66;5004399;28;20036;-75
2022/01/14 00:10:49;;;;;;;27.27;6.03;;;;;;;5.41;100.00;103110.84;5002483;28;20090;-76
2022/01/14 00:16:04;;;;;;;24.90;6.38;;;;;;;5.33;100.00;103119.81;5002157;28;20163;-73
2022/01/14 00:18:29;;;;;;;32.83;6.72;;;;;;;5.33;100.00;103117.19;5005885;28;20037;-76
2022/01/14 00:20:55;;;;;;;22.52;6.43;;;;;;;5.26;100.00;103106.19;4975811;28;20095;-73
2022/01/14 00:23:28;;;;;;;26.92;7.18;;;;;;;5.36;100.00;103110.13;4980067;28;20682;-76
2022/01/14 00:31:52;;;;;;;30.27;6.95;;;;;;;5.38;100.00;103113.53;5008026;28;20495;-76
2022/01/14 00:34:17;;;;;;;43.30;8.82;;;;;;;5.31;100.00;103106.84;4985030;28;20854;-76
2022/01/14 00:36:45;;;;;;;37.55;7.82;;;;;;;5.33;100.00;103118.06;4970472;28;20124;-75
2022/01/14 00:39:13;;;;;;;28.65;6.35;;;;;;;5.33;100.00;103109.41;5001865;28;20033;-73
2022/01/14 00:41:43;;;;;;;29.80;6.93;;;;;;;5.32;100.00;103099.91;5004961;28;20032;-75
2022/01/14 00:44:14;;;;;;;28.20;7.40;;;;;;;5.33;100.00;103101.59;4991728;28;20136;-75
2022/01/14 00:46:43;;;;;;;32.47;7.00;;;;;;;5.29;100.00;103100.00;4988074;28;20163;-76
2022/01/14 00:49:09;;;;;;;26.27;7.03;;;;;;;5.29;100.00;103100.00;4965588;28;20140;-76
2022/01/14 00:51:35;;;;;;;26.45;6.65;;;;;;;5.29;100.00;103092.19;4996616;28;20060;-75
2022/01/14 00:54:03;;;;;;;29.23;7.43;;;;;;;5.34;100.00;103093.72;5018034;28;20044;-76
2022/01/14 00:57:13;;;;;;;28.80;7.15;;;;;;;5.32;100.00;103089.50;5004085;28;20049;-75
2022/01/14 00:59:16;;;;;;;26.75;7.55;;;;;;;5.26;100.00;103095.75;5002456;28;20497;-75
2022/01/14 01:01:50;;;;;;;30.42;6.50;;;;;;;5.26;100.00;103096.59;4988623;28;20041;-74
2022/01/14 01:04:22;;;;;;;33.20;6.65;;;;;;;5.32;100.00;103092.09;5002835;28;20044;-74
2022/01/14 01:06:49;;;;;;;22.97;5.83;;;;;;;5.35;100.00;103087.63;4989246;28;20068;-75
2022/01/14 01:09:15;;;;;;;27.25;7.05;;;;;;;5.36;100.00;103096.28;4983165;28;20067;-75
2022/01/14 01:12:36;;;;;;;29.90;6.20;;;;;;;5.34;100.00;103090.28;5001252;28;20064;-75
2022/01/14 01:14:40;;;;;;;27.40;6.47;;;;;;;5.38;100.00;103078.84;4995077;28;20041;-75
2022/01/14 01:17:06;;;;;;;25.52;7.30;;;;;;;5.37;100.00;103082.34;4982136;28;20148;-76
2022/01/14 01:19:32;;;;;;;24.00;6.32;;;;;;;5.30;100.00;103073.94;4986187;28;20033;-76
2022/01/14 01:21:58;;;;;;;24.85;7.18;;;;;;;5.33;100.00;103078.16;4972363;28;20041;-76
2022/01/14 01:24:34;;;;;;;20.00;6.30;;;;;;;5.25;100.00;103078.44;4995056;28;20033;-77
2022/01/14 01:27:05;;;;;;;26.77;6.18;;;;;;;5.33;100.00;103084.25;4992879;28;20037;-74
2022/01/14 01:32:07;;;;;;;32.58;6.88;;;;;;;5.21;100.00;103080.28;5014464;28;20040;-75
2022/01/14 01:34:34;;;;;;;28.55;7.40;;;;;;;5.18;100.00;103080.44;4992470;28;20029;-73
2022/01/14 01:37:01;;;;;;;29.83;7.30;;;;;;;5.22;100.00;103086.38;4964496;28;20037;-73
2022/01/14 01:39:34;;;;;;;30.95;8.02;;;;;;;5.27;100.00;103081.84;4992788;28;20033;-73
2022/01/14 01:42:06;;;;;;;31.17;8.32;;;;;;;5.28;100.00;103082.72;4967978;28;20037;-74
2022/01/14 01:44:33;;;;;;;28.83;8.65;;;;;;;5.22;100.00;103089.81;4991474;28;20115;-75
2022/01/14 01:47:00;;;;;;;23.63;7.75;;;;;;;5.23;100.00;103082.84;5007155;28;20040;-75
2022/01/14 01:49:31;;;;;;;29.77;8.20;;;;;;;5.20;100.00;103077.78;4973925;28;20541;-75
2022/01/14 01:51:58;;;;;;;35.08;8.30;;;;;;;5.20;100.00;103088.19;4991583;28;20048;-75
2022/01/14 01:54:25;;;;;;;24.70;7.53;;;;;;;5.22;100.00;103084.63;4990006;28;20029;-75
2022/01/14 01:56:51;;;;;;;27.70;8.15;;;;;;;5.23;100.00;103085.44;4991306;28;20038;-75
2022/01/14 01:59:21;;;;;;;27.02;7.10;;;;;;;5.19;100.00;103082.09;4997388;28;20048;-75
2022/01/14 02:01:47;;;;;;;29.13;7.65;;;;;;;5.16;100.00;103090.03;5008487;28;20660;-75
2022/01/14 02:04:13;;;;;;;30.05;6.78;;;;;;;5.18;100.00;103083.03;4974696;28;20155;-75
2022/01/14 02:06:40;;;;;;;35.47;8.25;;;;;;;5.19;100.00;103089.91;4974558;28;20120;-75
2022/01/14 02:09:07;;;;;;;19.10;6.78;;;;;;;5.28;100.00;103085.31;4990681;28;20033;-75
2022/01/14 02:11:33;;;;;;;24.98;6.45;;;;;;;5.25;100.00;103074.09;5022050;28;20029;-74
2022/01/14 02:14:01;;;;;;;22.67;5.63;;;;;;;5.25;100.00;103081.03;4985598;28;20129;-74
2022/01/14 02:17:28;;;;;;;24.08;5.82;;;;;;;5.24;100.00;103071.56;4974948;28;20041;-75
2022/01/14 02:19:26;;;;;;;24.92;5.85;;;;;;;5.28;100.00;103069.69;5003639;28;20481;-75
2022/01/14 02:22:11;;;;;;;19.98;5.45;;;;;;;5.25;100.00;103068.03;4974852;28;20876;-75
2022/01/14 02:27:06;;;;;;;18.15;4.63;;;;;;;5.26;100.00;103061.94;4991126;28;20041;-74
2022/01/14 02:29:32;;;;;;;17.38;4.47;;;;;;;5.12;100.00;103045.97;4991142;23;20054;-77
2022/01/14 02:31:58;;;;;;;22.73;5.00;;;;;;;5.21;100.00;103054.28;4986875;28;20342;-77
2022/01/14 02:34:24;;;;;;;22.48;5.55;;;;;;;5.23;100.00;103056.84;4981351;28;20038;-77
2022/01/14 02:36:51;;;;;;;21.95;4.45;;;;;;;5.21;100.00;103049.06;4951168;28;20026;-77
2022/01/14 02:39:18;;;;;;;18.63;4.75;;;;;;;5.25;100.00;103047.22;4953762;28;20037;-77
2022/01/14 02:41:47;;;;;;;26.17;5.22;;;;;;;5.22;100.00;103037.78;4949907;28;20580;-76
2022/01/14 02:44:20;;;;;;;19.10;4.75;;;;;;;5.25;100.00;103018.59;4954437;28;20027;-78
2022/01/14 02:46:54;;;;;;;29.05;5.88;;;;;;;5.31;100.00;103026.16;4947797;28;20702;-77
2022/01/14 02:49:21;;;;;;;21.75;4.95;;;;;;;5.23;100.00;103018.63;4952751;28;20119;-77
2022/01/14 02:51:47;;;;;;;19.20;4.50;;;;;;;5.17;100.00;102999.81;4936841;28;20027;-77
2022/01/14 02:54:16;;;;;;;23.15;4.75;;;;;;;5.22;100.00;103001.34;4941985;28;20085;-78
2022/01/14 02:56:45;;;;;;;18.27;4.82;;;;;;;5.31;100.00;102999.31;4982447;28;20042;-77
2022/01/14 02:59:15;;;;;;;15.45;4.68;;;;;;;5.26;100.00;103012.50;4955818;28;20070;-77
2022/01/14 03:01:41;;;;;;;21.35;5.35;;;;;;;5.31;100.00;103000.13;4944726;28;20395;-77
2022/01/14 03:04:08;;;;;;;25.40;5.30;;;;;;;5.25;100.00;102984.75;4959706;28;20106;-78
2022/01/14 03:06:34;;;;;;;21.23;5.25;;;;;;;5.29;100.00;102988.09;4925218;28;20047;-77
2022/01/14 03:09:00;;;;;;;15.73;4.43;;;;;;;5.41;100.00;102982.44;4907953;29;20154;-77
2022/01/14 03:11:32;;;;;;;22.13;5.78;;;;;;;5.36;100.00;102979.16;4949924;28;20044;-78
2022/01/14 03:13:59;;;;;;;22.20;5.60;;;;;;;5.46;100.00;102970.97;4934205;29;20058;-78
2022/01/14 03:16:25;;;;;;;21.60;5.20;;;;;;;5.36;100.00;102963.56;4951400;28;20047;-77
2022/01/14 03:18:53;;;;;;;18.33;4.70;;;;;;;5.35;100.00;102961.84;4949661;28;20042;-78
2022/01/14 03:21:33;;;;;;;18.20;5.15;;;;;;;5.39;100.00;102956.47;4934297;29;20043;-78
2022/01/14 03:26:50;;;;;;;30.23;5.80;;;;;;;5.40;100.00;102978.97;4929588;28;20050;-78
2022/01/14 03:29:17;;;;;;;20.65;4.47;;;;;;;5.31;100.00;102960.25;4921106;28;20043;-79
2022/01/14 03:31:44;;;;;;;21.65;4.60;;;;;;;5.50;100.00;102963.88;4934394;29;20058;-77
2022/01/14 03:34:10;;;;;;;17.40;5.00;;;;;;;5.57;100.00;102974.88;4917273;28;20039;-78
2022/01/14 03:36:35;;;;;;;23.27;4.80;;;;;;;5.48;100.00;102965.66;4931670;29;20053;-79
2022/01/14 03:39:03;;;;;;;25.80;5.25;;;;;;;5.46;100.00;102967.47;4941182;29;20070;-78
2022/01/14 03:41:28;;;;;;;16.30;4.45;;;;;;;5.38;100.00;102961.75;4940921;28;20047;-78
2022/01/14 03:43:54;;;;;;;20.27;5.50;;;;;;;5.40;100.00;102952.94;4934334;29;20062;-79
2022/01/14 03:46:19;;;;;;;23.38;5.57;;;;;;;5.52;100.00;102940.38;4949883;28;20031;-79
2022/01/14 03:48:45;;;;;;;18.80;5.30;;;;;;;5.43;100.00;102939.84;4937770;28;20053;-79
2022/01/14 03:51:12;;;;;;;25.38;5.53;;;;;;;5.58;100.00;102934.94;4936890;28;20031;-80
2022/01/14 03:53:38;;;;;;;25.38;5.88;;;;;;;5.54;100.00;102935.94;4953776;28;20036;-79
2022/01/14 03:56:04;;;;;;;20.15;6.05;;;;;;;5.45;100.00;102934.56;4953804;28;20122;-79
2022/01/14 03:58:30;;;;;;;26.73;6.38;;;;;;;5.48;100.00;102918.81;4938647;28;20146;-78
2022/01/14 04:00:55;;;;;;;22.98;5.60;;;;;;;5.53;100.00;102922.09;4954574;28;20035;-80
2022/01/14 04:03:21;;;;;;;24.92;7.15;;;;;;;5.52;100.00;102911.75;4953752;28;20142;-79
2022/01/14 04:05:46;;;;;;;22.80;5.80;;;;;;;5.58;100.00;102908.91;4921726;29;20043;-79
2022/01/14 04:08:12;;;;;;;26.95;6.15;;;;;;;5.54;100.00;102908.19;4937268;28;20043;-79
2022/01/14 04:10:38;;;;;;;18.02;5.50;;;;;;;5.46;100.00;102913.69;4944765;29;20050;-79
2022/01/14 04:13:14;;;;;;;26.42;6.78;;;;;;;5.47;100.00;102899.75;4954029;28;20039;-78
2022/01/14 04:15:43;;;;;;;22.20;6.15;;;;;;;5.43;100.00;102902.56;4926059;28;20033;-78
2022/01/14 04:18:15;;;;;;;25.15;6.60;;;;;;;5.48;100.00;102911.00;4939563;28;20042;-78
2022/01/14 04:20:43;;;;;;;31.17;7.15;;;;;;;5.41;100.00;102913.03;4929546;28;20034;-78
2022/01/14 04:23:13;;;;;;;26.67;6.50;;;;;;;5.33;100.00;102917.69;4931443;28;20050;-78
2022/01/14 04:25:39;;;;;;;18.85;5.88;;;;;;;5.25;100.00;102919.72;4962314;28;20409;-77
2022/01/14 04:28:06;;;;;;;20.02;5.95;;;;;;;5.33;100.00;102925.50;4953036;28;20043;-78
2022/01/14 04:30:32;;;;;;;21.40;5.53;;;;;;;5.20;100.00;102917.28;4939867;28;20034;-78
2022/01/14 04:32:58;;;;;;;26.65;6.43;;;;;;;5.27;100.00;102928.31;4928565;28;20042;-78
2022/01/14 04:35:25;;;;;;;21.77;5.43;;;;;;;5.22;100.00;102905.06;4941831;29;20082;-78
2022/01/14 04:37:51;;;;;;;24.98;6.30;;;;;;;5.28;100.00;102919.59;4934912;29;20122;-78
2022/01/14 04:40:16;;;;;;;26.05;5.85;;;;;;;5.32;100.00;102905.56;4960534;28;20505;-79
2022/01/14 04:42:43;;;;;;;21.40;5.72;;;;;;;5.32;100.00;102912.53;4938285;29;20038;-79
2022/01/14 04:45:11;;;;;;;22.88;6.05;;;;;;;5.26;100.00;102919.66;4938790;28;20042;-77
2022/01/14 04:47:46;;;;;;;29.65;5.95;;;;;;;5.37;100.00;102908.84;4921229;29;20035;-78
2022/01/14 04:50:14;;;;;;;30.77;6.10;;;;;;;5.45;100.00;102891.16;4951867;28;20120;-78
2022/01/14 04:52:40;;;;;;;20.77;5.10;;;;;;;5.49;100.00;102891.88;4951609;28;20086;-79
2022/01/14 04:55:08;;;;;;;21.55;5.60;;;;;;;5.44;100.00;102884.28;4935356;29;20042;-78
2022/01/14 04:57:34;;;;;;;26.55;6.43;;;;;;;5.44;100.00;102888.63;4946932;28;20199;-79
2022/01/14 05:00:00;;;;;;;24.10;5.60;;;;;;;5.32;100.00;102887.34;4941541;29;20043;-79
2022/01/14 05:02:27;;;;;;;19.33;5.32;;;;;;;5.30;100.00;102904.78;4922127;28;20413;-78
2022/01/14 05:04:54;;;;;;;19.30;6.03;;;;;;;5.36;100.00;102901.09;4937343;29;20501;-78
2022/01/14 05:07:25;;;;;;;31.55;5.80;;;;;;;5.32;100.00;102904.72;4928353;28;20047;-78
2022/01/14 05:10:16;;;;;;;26.98;5.95;;;;;;;5.28;100.00;102901.38;4942679;29;20039;-78
2022/01/14 05:12:42;;;;;;;17.80;5.13;;;;;;;5.33;100.00;102911.59;4941653;28;20155;-78
2022/01/14 05:15:09;;;;;;;23.58;5.22;;;;;;;5.31;100.00;102903.84;4942486;28;20034;-78
2022/01/14 05:17:34;;;;;;;23.40;5.45;;;;;;;5.20;100.00;102895.66;4920728;29;20066;-77
2022/01/14 05:20:01;;;;;;;25.38;5.75;;;;;;;5.36;100.00;102908.91;4941735;29;20099;-78
2022/01/14 05:22:27;;;;;;;22.15;5.50;;;;;;;5.25;100.00;102911.91;4943353;28;20049;-78
2022/01/14 05:24:53;;;;;;;21.13;5.43;;;;;;;5.26;100.00;102909.25;4948545;29;20036;-78
2022/01/14 05:27:19;;;;;;;22.75;5.30;;;;;;;5.37;100.00;102910.56;4938573;28;20050;-77
2022/01/14 05:29:45;;;;;;;32.38;5.70;;;;;;;5.34;100.00;102895.94;4923356;29;20055;-77
2022/01/14 05:32:14;;;;;;;19.80;5.28;;;;;;;5.28;100.00;102904.00;4935631;28;20047;-77
2022/01/14 05:34:41;;;;;;;27.38;5.63;;;;;;;5.25;100.00;102901.50;4958901;28;20035;-78
2022/01/14 05:37:08;;;;;;;24.95;5.70;;;;;;;5.26;100.00;102905.81;4962322;28;20498;-78
2022/01/14 05:39:34;;;;;;;26.20;5.63;;;;;;;5.35;100.00;102907.19;4918348;29;20043;-78
2022/01/14 05:42:00;;;;;;;22.92;4.85;;;;;;;5.23;100.00;102895.50;4933933;29;20095;-78
2022/01/14 05:44:27;;;;;;;25.73;5.82;;;;;;;5.28;100.00;102897.94;4951381;28;20051;-78
2022/01/14 05:46:55;;;;;;;26.45;5.82;;;;;;;5.26;100.00;102905.81;4938138;29;20072;-77
2022/01/14 05:49:22;;;;;;;28.92;5.18;;;;;;;5.35;100.00;102904.59;4954759;28;20050;-78
2022/01/14 05:51:49;;;;;;;29.23;5.28;;;;;;;5.33;100.00;102904.66;4923765;29;20133;-78
2022/01/14 05:54:15;;;;;;;21.30;4.57;;;;;;;5.27;100.00;102910.09;4946936;28;20035;-79
2022/01/14 05:56:41;;;;;;;21.35;4.60;;;;;;;5.30;100.00;102904.78;4926462;29;20035;-77
2022/01/14 05:59:07;;;;;;;22.95;5.13;;;;;;;5.23;100.00;102919.75;4937160;29;20054;-77
2022/01/14 06:01:33;;;;;;;27.15;5.00;;;;;;;5.27;100.00;102928.31;4921616;29;20157;-77
2022/01/14 06:04:04;;;;;;;23.15;4.70;;;;;;;5.23;100.00;102927.56;4920840;29;20031;-78
2022/01/14 06:06:31;;;;;;;23.83;4.93;;;;;;;5.21;100.00;102925.94;4929135;28;20110;-78
2022/01/14 06:08:57;;;;;;;21.23;4.60;;;;;;;5.23;100.00;102924.97;4912429;29;20046;-77
2022/01/14 06:11:23;;;;;;;24.02;4.18;;;;;;;5.22;100.00;102915.47;4952618;28;20054;-78
2022/01/14 06:13:48;;;;;;;28.95;5.25;;;;;;;5.20;100.00;102926.88;4963111;28;20049;-77
2022/01/14 06:16:14;;;;;;;26.92;5.10;;;;;;;5.15;100.00;102931.38;4939614;28;20544;-78
2022/01/14 06:18:41;;;;;;;22.90;4.80;;;;;;;5.13;100.00;102917.59;4943896;28;20074;-78
2022/01/14 06:21:07;;;;;;;21.27;4.72;;;;;;;5.25;100.00;102922.31;4937444;28;20049;-77
2022/01/14 06:23:33;;;;;;;21.77;5.22;;;;;;;5.17;100.00;102922.59;4932704;28;20039;-77
2022/01/14 06:25:59;;;;;;;25.63;4.68;;;;;;;5.22;100.00;102930.25;4924692;28;20460;-78
2022/01/14 06:28:25;;;;;;;25.80;5.20;;;;;;;5.17;100.00;102929.56;4950488;28;20046;-78
2022/01/14 06:30:50;;;;;;;22.27;4.47;;;;;;;5.18;100.00;102919.13;4930710;28;20042;-77
2022/01/14 06:33:16;;;;;;;24.55;4.68;;;;;;;5.08;100.00;102917.75;4942244;28;20032;-79
2022/01/14 06:35:42;;;;;;;22.85;4.45;;;;;;;5.18;100.00;102913.03;4929035;29;20275;-78
2022/01/14 06:38:08;;;;;;;23.23;4.80;;;;;;;5.17;100.00;102922.59;4949036;28;20035;-79
2022/01/14 06:40:33;;;;;;;24.92;4.90;;;;;;;5.11;100.00;102909.84;4918814;29;20027;-78
2022/01/14 06:42:59;;;;;;;32.30;5.00;;;;;;;5.09;100.00;102905.59;4951529;28;20062;-78
2022/01/14 06:45:25;;;;;;;16.92;4.13;;;;;;;5.07;100.00;102908.25;4935987;28;20035;-79
2022/01/14 06:47:51;;;;;;;29.27;4.70;;;;;;;5.12;100.00;102919.31;4952771;28;20086;-78
2022/01/14 06:50:18;;;;;;;27.83;4.93;;;;;;;5.13;100.00;102933.19;4941197;28;20031;-77
2022/01/14 06:52:44;;;;;;;29.42;4.80;;;;;;;5.13;100.00;102934.03;4951993;28;20058;-78
2022/01/14 06:55:10;;;;;;;26.67;4.70;;;;;;;5.09;100.00;102923.81;4964456;28;20488;-77
2022/01/14 06:57:36;;;;;;;22.15;4.35;;;;;;;5.06;100.00;102920.41;4954083;28;20023;-77
2022/01/14 07:00:08;;;;;;;23.95;4.43;;;;;;;5.16;100.00;102931.34;4958677;28;20027;-78
2022/01/14 07:02:34;;;;;;;20.45;3.75;;;;;;;5.13;100.00;102926.22;4955034;28;20030;-79
2022/01/14 07:04:59;;;;;;;29.52;4.10;;;;;;;5.22;100.00;102941.50;4956892;28;20111;-79
2022/01/14 07:07:25;;;;;;;34.03;4.60;;;;;;;5.11;100.00;102945.41;4952271;28;20031;-79
2022/01/14 07:09:57;;;;;;;26.75;4.47;;;;;;;5.25;100.00;102937.94;4943711;28;20038;-80
2022/01/14 07:12:24;;;;;;;25.33;3.67;;;;;;;5.14;100.00;102942.69;4951123;28;20043;-79
2022/01/14 07:14:50;;;;;;;28.88;4.50;;;;;;;5.19;100.00;102935.56;4944324;28;20039;-79
2022/01/14 07:17:15;;;;;;;29.95;4.25;;;;;;;5.19;100.00;102944.22;4961792;28;20046;-78
2022/01/14 07:19:41;;;;;;;32.22;4.70;;;;;;;5.17;100.00;102953.81;4964114;28;20046;-80
2022/01/14 07:22:07;;;;;;;29.88;4.78;;;;;;;5.05;100.00;102952.53;4968949;28;20062;-79
2022/01/14 07:24:33;;;;;;;29.08;4.72;;;;;;;5.09;100.00;102962.84;4963875;28;20031;-80
2022/01/14 07:26:59;;;;;;;24.92;4.75;;;;;;;5.05;100.00;102964.69;4950788;28;20038;-78
2022/01/14 07:29:24;;;;;;;24.50;4.55;;;;;;;5.11;100.00;102966.22;4931749;28;20090;-79
2022/01/14 07:31:51;;;;;;;27.75;4.97;;;;;;;5.12;100.00;102980.91;4939080;29;20047;-79
2022/01/14 07:34:17;;;;;;;28.90;4.60;;;;;;;5.21;100.00;102973.63;4963945;28;20045;-80
2022/01/14 07:36:43;;;;;;;31.38;5.10;;;;;;;5.18;100.00;102957.28;4962762;28;20035;-79
2022/01/14 07:39:09;;;;;;;21.40;3.90;;;;;;;5.16;100.00;102970.34;4950277;28;20120;-78
2022/01/14 07:41:35;;;;;;;38.20;4.95;;;;;;;5.16;100.00;102974.69;4958376;28;20045;-80
2022/01/14 07:44:02;;;;;;;32.70;4.72;;;;;;;5.17;100.00;102971.19;4938941;28;20459;-79
2022/01/14 07:46:28;;;;;;;25.73;4.60;;;;;;;5.11;100.00;102984.44;4953912;28;20508;-78
2022/01/14 07:48:53;;;;;;;26.85;4.30;;;;;;;5.22;100.00;102974.50;4941031;29;20046;-79
2022/01/14 07:51:19;;;;;;;22.35;4.35;;;;;;;5.24;100.00;102970.06;4955994;28;20130;-77
2022/01/14 07:53:45;;;;;;;26.17;4.53;;;;;;;5.25;100.00;102972.63;4951605;28;20051;-79
2022/01/14 07:56:12;;;;;;;33.08;4.32;;;;;;;5.26;100.00;102981.28;4926355;28;20110;-78
2022/01/14 07:58:40;;;;;;;26.92;4.82;;;;;;;5.23;100.00;102966.59;4939175;29;20042;-78
2022/01/14 08:01:06;;;;;;;34.90;5.03;;;;;;;5.25;100.00;102961.34;4964601;28;20054;-77
2022/01/14 08:03:31;;;;;;;30.05;5.43;;;;;;;5.24;100.00;102964.88;4969113;28;20065;-78
2022/01/14 08:05:58;;;;;;;24.33;4.70;;;;;;;5.26;100.00;102956.09;4932691;28;20042;-78
2022/01/14 08:08:24;;;;;;;22.13;4.45;;;;;;;5.35;100.00;102969.66;4939771;28;20031;-77
2022/01/14 08:10:50;;;;;;;32.58;4.85;;;;;;;5.32;100.00;102975.81;4959129;28;20045;-78
2022/01/14 08:13:15;;;;;;;34.65;4.72;;;;;;;5.30;100.00;102966.41;4931053;28;20042;-79
2022/01/14 08:15:41;;;;;;;25.92;5.32;;;;;;;5.36;100.00;102968.75;4940546;29;20038;-78
2022/01/14 08:18:07;;;;;;;21.70;4.10;;;;;;;5.47;100.00;102975.25;4934973;28;20042;-80
2022/01/14 08:20:33;;;;;;;33.92;5.07;;;;;;;5.43;100.00;102965.88;4958846;28;20039;-79
2022/01/14 08:23:00;;;;;;;26.65;4.47;;;;;;;5.41;100.00;102978.09;4957092;28;20039;-79
2022/01/14 08:25:27;;;;;;;29.15;4.93;;;;;;;5.35;100.00;102973.13;4955553;28;20252;-78
2022/01/14 08:27:53;;;;;;;27.13;4.63;;;;;;;5.35;100.00;102973.13;4943791;28;20027;-79
2022/01/14 08:30:18;;;;;;;30.33;4.20;;;;;;;5.34;100.00;102970.56;4941136;28;20174;-79
2022/01/14 08:32:44;;;;;;;34.95;4.55;;;;;;;5.40;100.00;102965.13;4943485;28;20042;-78
2022/01/14 08:35:10;;;;;;;28.92;4.38;;;;;;;5.44;100.00;102980.59;4924196;28;20043;-78
2022/01/14 08:37:38;;;;;;;31.35;4.38;;;;;;;5.45;100.00;102974.47;4929148;29;20405;-78
2022/01/14 08:40:06;;;;;;;30.38;4.60;;;;;;;5.47;100.00;102982.22;4956085;28;20042;-79
2022/01/14 08:42:32;;;;;;;32.67;4.28;;;;;;;5.52;100.00;102974.22;4943984;28;20031;-79
2022/01/14 08:44:58;;;;;;;31.65;4.72;;;;;;;5.60;100.00;102975.63;4938955;29;20054;-79
2022/01/14 08:47:24;;;;;;;31.48;4.15;;;;;;;5.54;100.00;102986.28;4953972;28;20046;-78
2022/01/14 08:49:50;;;;;;;41.67;5.78;;;;;;;5.56;100.00;102981.88;4940447;29;20122;-79
2022/01/14 08:52:16;;;;;;;23.60;4.65;;;;;;;5.47;100.00;102992.63;4929661;28;20039;-79
2022/01/14 08:54:42;;;;;;;28.38;5.32;;;;;;;5.40;100.00;103012.81;4936285;29;20040;-79
2022/01/14 08:57:08;;;;;;;37.58;5.30;;;;;;;5.43;100.00;103004.91;4943876;28;20035;-78
2022/01/14 08:59:34;;;;;;;32.70;6.00;;;;;;;5.44;100.00;103014.44;4930270;29;20023;-79
2022/01/14 09:02:00;;;;;;;25.65;5.68;;;;;;;5.41;100.00;103013.69;4954403;28;20042;-79
2022/01/14 09:04:25;;;;;;;31.42;5.60;;;;;;;5.48;100.00;102999.50;4937363;28;20042;-79
2022/01/14 09:06:51;;;;;;;31.60;5.07;;;;;;;5.39;100.00;103005.09;4953421;28;20058;-78
2022/01/14 09:09:17;;;;;;;30.90;6.50;;;;;;;5.40;100.00;103002.41;4955539;28;20123;-78
2022/01/14 09:11:43;;;;;;;30.30;5.72;;;;;;;5.40;100.00;102997.19;4956708;28;20042;-79
2022/01/14 09:14:09;;;;;;;31.15;5.82;;;;;;;5.42;100.00;103003.19;4967098;28;20102;-79
2022/01/14 09:16:35;;;;;;;29.08;6.95;;;;;;;5.46;100.00;102993.50;4954695;28;20153;-79
2022/01/14 09:19:02;;;;;;;40.70;6.93;;;;;;;5.45;100.00;102986.63;4963859;28;20038;-78
2022/01/14 09:21:27;;;;;;;28.77;5.63;;;;;;;5.43;100.00;102984.06;4956404;28;20386;-79
2022/01/14 09:24:03;;;;;;;32.80;6.35;;;;;;;5.41;100.00;102993.72;4957325;28;20038;-79
2022/01/14 09:26:30;;;;;;;47.95;7.10;;;;;;;5.38;100.00;102983.41;4964570;28;20550;-79
2022/01/14 09:28:56;;;;;;;35.60;7.32;;;;;;;5.38;100.00;102993.81;4940039;28;20089;-80
2022/01/14 09:31:22;;;;;;;38.22;7.07;;;;;;;5.36;100.00;103000.81;4923324;28;20042;-80
2022/01/14 09:33:47;;;;;;;37.17;7.50;;;;;;;5.29;100.00;102996.75;4952647;28;20065;-79
2022/01/14 09:36:13;;;;;;;34.10;6.68;;;;;;;5.28;100.00;102994.22;4942087;28;20035;-80
2022/01/14 09:38:42;;;;;;;27.10;6.38;;;;;;;5.43;100.00;102997.09;4956519;28;20396;-79
2022/01/14 09:41:08;;;;;;;31.08;6.70;;;;;;;5.37;100.00;102992.13;4938462;28;20042;-78
2022/01/14 09:43:36;;;;;;;39.03;6.88;;;;;;;5.47;100.00;102990.84;4962791;28;20073;-80
2022/01/14 09:46:05;;;;;;;30.85;5.85;;;;;;;5.39;100.00;102994.69;4955830;28;20073;-80
2022/01/14 09:48:32;;;;;;;28.45;6.00;;;;;;;5.38;100.00;102999.00;4953979;28;20042;-82
2022/01/14 09:50:58;;;;;;;38.08;6.53;;;;;;;5.37;100.00;102996.47;4944311;28;20129;-79
2022/01/14 09:53:25;;;;;;;35.08;6.47;;;;;;;5.31;100.00;102997.53;4971693;28;20049;-80
2022/01/14 09:55:51;;;;;;;34.63;7.30;;;;;;;5.35;100.00;102990.47;4958805;28;20453;-79
2022/01/14 09:58:17;;;;;;;30.38;6.70;;;;;;;5.36;100.00;103002.59;4938108;28;20166;-79
2022/01/14 10:00:43;;;;;;;38.80;7.38;;;;;;;5.29;100.00;103012.38;4945066;28;20026;-80
2022/01/14 10:03:25;;;;;;;33.53;7.07;;;;;;;5.35;100.00;102999.16;4979285;28;20070;-80
2022/01/14 10:05:56;;;;;;;28.02;7.40;;;;;;;5.36;100.00;103000.00;4956118;28;20046;-80
2022/01/14 10:08:26;;;;;;;30.95;7.65;;;;;;;5.38;100.00;102993.81;4971597;28;20065;-79
2022/01/14 10:10:59;;;;;;;33.78;7.70;;;;;;;5.36;100.00;103011.25;4955156;28;20558;-78
2022/01/14 10:13:33;;;;;;;36.17;9.15;;;;;;;5.38;100.00;103009.44;4972492;28;20042;-80
2022/01/14 10:16:00;;;;;;;37.10;8.20;;;;;;;5.35;100.00;103025.16;4956263;28;20026;-79
2022/01/14 10:18:26;;;;;;;39.88;9.55;;;;;;;5.35;100.00;103025.16;4955106;28;20133;-79
2022/01/14 10:20:51;;;;;;;29.75;8.75;;;;;;;5.37;100.00;103025.09;4955878;28;20500;-81
2022/01/14 10:23:38;;;;;;;42.67;10.55;;;;;;;5.40;100.00;103033.63;4954203;28;20047;-81
2022/01/14 10:26:04;;;;;;;37.60;10.50;;;;;;;5.46;100.00;103029.97;4955527;28;20106;-80
2022/01/14 10:28:30;;;;;;;38.30;10.27;;;;;;;5.52;100.00;103018.47;4939340;28;20035;-80
2022/01/14 10:30:56;;;;;;;37.35;10.65;;;;;;;5.43;100.00;103009.28;4945939;28;20069;-80
2022/01/14 10:33:27;;;;;;;32.20;10.13;;;;;;;5.57;100.00;103016.56;4955233;28;20070;-79
2022/01/14 10:35:52;;;;;;;30.67;9.95;;;;;;;5.47;100.00;103008.25;4937915;28;20031;-80
2022/01/14 10:38:22;;;;;;;35.35;10.82;;;;;;;5.45;100.00;103013.50;4938142;28;20632;-79
2022/01/14 10:40:58;;;;;;;28.00;9.73;;;;;;;5.54;100.00;103016.66;4938610;28;20542;-80
2022/01/14 10:43:35;;;;;;;29.50;9.75;;;;;;;5.52;100.00;103013.25;4938171;28;20053;-80
2022/01/14 10:46:10;;;;;;;30.83;10.63;;;;;;;5.56;100.00;103004.44;4953841;28;20050;-80
2022/01/14 10:48:39;;;;;;;28.40;10.50;;;;;;;5.57;100.00;102998.31;4965083;28;20034;-79
2022/01/14 10:51:07;;;;;;;35.95;9.93;;;;;;;5.53;100.00;102996.75;4972145;28;20054;-78
2022/01/14 10:53:36;;;;;;;36.85;11.30;;;;;;;5.53;100.00;103001.97;4972408;28;20039;-79
2022/01/14 10:56:17;;;;;;;26.60;11.07;;;;;;;5.66;100.00;102997.97;4962762;28;20118;-79
2022/01/14 10:58:45;;;;;;;30.13;11.05;;;;;;;5.72;100.00;102996.88;4949204;28;20043;-78
2022/01/14 11:01:21;;;;;;;36.33;10.90;;;;;;;5.61;100.00;103002.50;4954344;28;20035;-77
2022/01/14 11:03:56;;;;;;;42.10;12.27;;;;;;;5.70;100.00;102993.50;4937004;28;20039;-79
2022/01/14 11:06:40;;;;;;;39.60;11.90;;;;;;;5.70;100.00;102996.09;4954864;28;20074;-78
2022/01/14 11:09:10;;;;;;;29.58;11.50;;;;;;;5.68;100.00;102993.56;4971046;28;20564;-78
2022/01/14 11:11:43;;;;;;;37.42;11.52;;;;;;;5.73;100.00;102993.38;4970402;28;20036;-79
2022/01/14 11:14:09;;;;;;;30.65;11.45;;;;;;;5.79;100.00;102993.13;4943950;28;20066;-78
2022/01/14 11:16:36;;;;;;;33.30;11.25;;;;;;;5.80;100.00;103007.84;4942178;28;20043;-78
2022/01/14 11:19:03;;;;;;;36.83;11.30;;;;;;;5.76;100.00;102994.09;4937638;28;20051;-79
2022/01/14 11:24:19;;;;;;;31.48;10.88;;;;;;;5.72;100.00;103000.34;4976490;28;20030;-79
2022/01/14 11:27:11;;;;;;;30.40;11.35;;;;;;;5.74;100.00;103001.13;4970173;28;20074;-79
2022/01/14 11:29:43;;;;;;;30.63;11.30;;;;;;;5.80;100.00;103007.84;4936884;28;20447;-79
2022/01/14 11:32:09;;;;;;;32.43;11.47;;;;;;;5.71;100.00;103010.81;4967114;28;20467;-78
2022/01/14 11:34:43;;;;;;;25.50;10.75;;;;;;;5.70;100.00;102998.72;4943173;28;20363;-79
2022/01/14 11:37:11;;;;;;;27.48;9.95;;;;;;;5.74;100.00;102993.31;4959826;28;20044;-79
2022/01/14 11:39:39;;;;;;;25.48;9.93;;;;;;;5.78;100.00;102997.50;4971648;28;20050;-79